M I D A S
Marine Information and Data Acquisition System
Tripno 474 of the Zeeleeuw from 2002-04-25 11:45:00 to 2002-04-25 15:45:00
Back to CruiseResearch ActivitiesStationsMapUnderway DataData graphs

EquipmentUnitsComments
TimeDGPSUTC
LatitudeDGPSDM.mWGS84
LongitudeDGPSDM.mWGS84
SpeedMeteo Stationm/sRelative wind speed
DirectionMeteo StationdegRelative wind direction
TemperatureMeteo Stationdeg CelciusAir temperature
PressureMeteo StationPaAtmospheric pressure
HumidityMeteo Station%Relative humidity
Missing or incorrect values are displayed as -999
Metereological data collected by the RV Zeeleeuw from 2002-04-25 11:45:00 to 2002-04-25 15:45:00
Time Latitude Longitude Speed Direction Temperature Pressure Humidity
2002-04-25 11:46 51°13.687 2°55.883 4.9 48 11.6 102240 81
2002-04-25 11:47 51°13.69 2°55.803 5.7 43 11.5 102230 81
2002-04-25 11:48 51°13.692 2°55.753 4.1 348 11.5 102230 81
2002-04-25 11:49 51°13.698 2°55.77 3.6 354 11.5 102230 81
2002-04-25 11:50 51°13.708 2°55.758 5.7 257 11.5 102220 81
2002-04-25 11:51 51°13.779 2°55.676 7.5 238 11.6 102200 81
2002-04-25 11:52 51°13.875 2°55.595 6.4 244 11.7 102210 80
2002-04-25 11:53 51°13.983 2°55.522 10.3 259 11.7 102210 81
2002-04-25 11:54 51°14.091 2°55.444 10.1 261 11.7 102210 81
2002-04-25 11:55 51°14.197 2°55.36 9.1 253 11.7 102210 82
2002-04-25 11:56 51°14.289 2°55.221 10.1 239 11.6 102210 82
2002-04-25 11:57 51°14.37 2°55.041 10.5 237 11.6 102210 82
2002-04-25 11:58 51°14.438 2°54.812 11.7 220 11.5 102220 82
2002-04-25 11:59 51°14.452 2°54.519 9.8 203 11.4 102210 83
2002-04-25 12:00 51°14.366 2°54.264 10.2 199 11.3 102210 83
2002-04-25 12:01 51°14.262 2°54.024 9.5 203 11.1 102210 84
2002-04-25 12:02 51°14.16 2°53.78 10.3 199 11 102210 84
2002-04-25 12:03 51°14.052 2°53.525 10.2 205 10.9 102210 84
2002-04-25 12:04 51°13.943 2°53.265 10.5 204 10.9 102210 85
2002-04-25 12:05 51°13.841 2°52.984 10.7 207 10.9 102210 85
2002-04-25 12:06 51°13.739 2°52.712 10.9 206 11 102200 85
2002-04-25 12:07 51°13.639 2°52.438 10.3 205 11 102210 85
2002-04-25 12:08 51°13.537 2°52.162 10.3 209 10.9 102200 85
2002-04-25 12:09 51°13.435 2°51.887 10.3 207 11 102200 85
2002-04-25 12:10 51°13.332 2°51.613 11.3 205 10.9 102200 85
2002-04-25 12:11 51°13.229 2°51.342 10.9 202 11 102200 85
2002-04-25 12:12 51°13.127 2°51.069 11.1 206 11 102210 85
2002-04-25 12:13 51°13.026 2°50.793 11.7 205 11 102210 85
2002-04-25 12:14 51°12.922 2°50.515 10.3 205 10.9 102210 85
2002-04-25 12:15 51°12.819 2°50.244 10.8 205 10.9 102200 85
2002-04-25 12:16 51°12.717 2°49.958 10.9 207 10.9 102210 86
2002-04-25 12:17 51°12.619 2°49.674 12.3 204 10.9 102210 86
2002-04-25 12:18 51°12.52 2°49.389 11.2 205 10.9 102210 85
2002-04-25 12:19 51°12.422 2°49.108 11.7 203 10.9 102210 85
2002-04-25 12:20 51°12.324 2°48.825 11.2 203 10.9 102210 85
2002-04-25 12:21 51°12.227 2°48.542 11.1 203 10.9 102210 86
2002-04-25 12:22 51°12.13 2°48.259 12.1 200 10.9 102210 86
2002-04-25 12:23 51°12.048 2°47.96 11.2 205 10.8 102210 85
2002-04-25 12:24 51°11.968 2°47.661 12 205 10.9 102210 85
2002-04-25 12:25 51°11.888 2°47.365 12.5 203 11 102210 85
2002-04-25 12:26 51°11.807 2°47.069 10.5 207 10.9 102220 84
2002-04-25 12:27 51°11.727 2°46.773 10.6 201 10.9 102210 85
2002-04-25 12:28 51°11.647 2°46.475 11.5 204 10.9 102220 85
2002-04-25 12:29 51°11.565 2°46.178 11.9 206 10.9 102210 85
2002-04-25 12:30 51°11.485 2°45.882 11.5 205 11 102210 85
2002-04-25 12:31 51°11.404 2°45.588 12.1 213 11 102220 85
2002-04-25 12:32 51°11.32 2°45.291 11.9 209 11.1 102220 85
2002-04-25 12:33 51°11.259 2°44.986 13 220 11.1 102220 84
2002-04-25 12:34 51°11.275 2°44.658 13.3 217 11.2 102220 84
2002-04-25 12:35 51°11.293 2°44.327 12.4 222 11.3 102230 84
2002-04-25 12:36 51°11.348 2°44.009 13.7 226 11.4 102230 83
2002-04-25 12:37 51°11.418 2°43.695 14.1 227 11.4 102230 83
2002-04-25 12:38 51°11.484 2°43.379 13.2 226 11.3 102230 83
2002-04-25 12:39 51°11.534 2°43.065 12.7 235 11.4 102240 83
2002-04-25 12:40 51°11.683 2°42.832 13.2 231 11.3 102230 83
2002-04-25 12:41 51°11.731 2°42.611 8.2 215 11.3 102240 83
2002-04-25 12:42 51°11.74 2°42.595 6.4 168 11.3 102250 83
2002-04-25 12:43 51°11.749 2°42.622 5.4 141 11.2 102250 85
2002-04-25 12:44 51°11.755 2°42.647 5.6 131 11.1 102260 85
2002-04-25 12:45 51°11.759 2°42.675 5.5 129 11.1 102260 85
2002-04-25 12:46 51°11.762 2°42.703 5 127 11.1 102260 85
2002-04-25 12:47 51°11.765 2°42.732 5.4 121 11.1 102260 85
2002-04-25 12:48 51°11.766 2°42.76 5.6 137 11.1 102260 85
2002-04-25 12:49 51°11.769 2°42.786 4.9 137 11.2 102260 85
2002-04-25 12:50 51°11.772 2°42.809 4.7 134 11.2 102260 85
2002-04-25 12:51 51°11.775 2°42.832 5.3 146 11.2 102250 85
2002-04-25 12:52 51°11.778 2°42.854 5.9 154 11.2 102250 85
2002-04-25 12:53 51°11.781 2°42.876 5.1 152 11.2 102250 85
2002-04-25 12:54 51°11.784 2°42.897 4.6 156 11.2 102250 85
2002-04-25 12:55 51°11.787 2°42.918 4.8 156 11.1 102250 85
2002-04-25 12:56 51°11.79 2°42.939 4.9 158 11.1 102250 85
2002-04-25 12:57 51°11.793 2°42.96 5.6 163 11.1 102250 84
2002-04-25 12:58 51°11.793 2°42.967 5.8 173 11.1 102250 84
2002-04-25 12:59 51°11.782 2°42.926 5.5 193 11.1 102240 84
2002-04-25 13:00 51°11.789 2°42.843 7.4 219 11.1 102240 85
2002-04-25 13:01 51°11.824 2°42.756 7.1 232 11.2 102250 85
2002-04-25 13:02 51°11.871 2°42.679 7.8 232 11.3 102240 84
2002-04-25 13:03 51°11.911 2°42.612 6.6 213 11.4 102240 84
2002-04-25 13:04 51°11.915 2°42.563 4.3 181 11.3 102240 84
2002-04-25 13:05 51°11.883 2°42.525 5.3 163 11.2 102240 85
2002-04-25 13:06 51°11.836 2°42.513 4.6 157 11.1 102240 85
2002-04-25 13:07 51°11.798 2°42.488 5.5 157 11.1 102240 85
2002-04-25 13:08 51°11.76 2°42.471 4.2 140 11.1 102240 85
2002-04-25 13:09 51°11.72 2°42.466 5 148 11.2 102240 84
2002-04-25 13:10 51°11.68 2°42.458 5.1 149 11.2 102240 84
2002-04-25 13:11 51°11.643 2°42.443 5.2 160 11.2 102240 83
2002-04-25 13:12 51°11.608 2°42.419 5.5 160 11.2 102240 82
2002-04-25 13:13 51°11.577 2°42.387 5.2 162 11.2 102230 82
2002-04-25 13:14 51°11.549 2°42.349 5 166 11.2 102230 83
2002-04-25 13:15 51°11.518 2°42.315 4.6 159 11.2 102220 83
2002-04-25 13:16 51°11.483 2°42.286 4 154 11.2 102220 83
2002-04-25 13:17 51°11.444 2°42.266 4.3 150 11.3 102220 83
2002-04-25 13:18 51°11.406 2°42.242 4.7 160 11.4 102220 81
2002-04-25 13:19 51°11.372 2°42.212 5.3 166 11.4 102230 82
2002-04-25 13:20 51°11.343 2°42.169 4.7 178 11.3 102230 82
2002-04-25 13:21 51°11.321 2°42.12 5.2 176 11.3 102230 82
2002-04-25 13:22 51°11.293 2°42.078 5 158 11.2 102230 83
2002-04-25 13:23 51°11.256 2°42.053 4.9 141 11.2 102230 83
2002-04-25 13:24 51°11.218 2°42.031 4.7 160 11.3 102220 83
2002-04-25 13:25 51°11.183 2°42.004 5.9 160 11.3 102230 83
2002-04-25 13:26 51°11.15 2°41.973 5.9 166 11.2 102230 82
2002-04-25 13:27 51°11.122 2°41.934 5.1 167 11.2 102230 82
2002-04-25 13:28 51°11.095 2°41.894 5 164 11.2 102220 82
2002-04-25 13:29 51°11.066 2°41.857 5.2 166 11.3 102220 82
2002-04-25 13:30 51°11.035 2°41.821 4.1 166 11.3 102230 83
2002-04-25 13:31 51°11.003 2°41.786 4.3 170 11.3 102230 83
2002-04-25 13:32 51°10.973 2°41.747 4.1 176 11.3 102230 83
2002-04-25 13:33 51°10.948 2°41.705 4.2 186 11.3 102230 82
2002-04-25 13:34 51°10.932 2°41.656 3.8 183 11.3 102230 83
2002-04-25 13:35 51°10.915 2°41.605 4.3 182 11.2 102220 83
2002-04-25 13:36 51°10.894 2°41.558 4.5 179 11.2 102230 83
2002-04-25 13:37 51°10.873 2°41.51 4.1 186 11.2 102230 84
2002-04-25 13:38 51°10.86 2°41.462 4.4 195 11.2 102230 83
2002-04-25 13:39 51°10.858 2°41.428 5 204 11.2 102230 83
2002-04-25 13:40 51°10.859 2°41.398 5 209 11.2 102230 83
2002-04-25 13:41 51°10.873 2°41.34 6.1 229 11.2 102220 83
2002-04-25 13:42 51°10.899 2°41.294 5.6 235 11.4 102230 83
2002-04-25 13:43 51°10.926 2°41.264 5.8 240 11.5 102230 82
2002-04-25 13:44 51°10.958 2°41.247 5.3 250 11.6 102230 82
2002-04-25 13:45 51°10.986 2°41.253 4.6 269 11.7 102230 81
2002-04-25 13:46 51°11.009 2°41.269 4.4 281 11.7 102230 81
2002-04-25 13:47 51°11.028 2°41.292 4.7 296 11.7 102230 80
2002-04-25 13:48 51°11.045 2°41.317 3.6 303 11.8 102230 80
2002-04-25 13:49 51°11.061 2°41.344 3.4 299 11.8 102230 81
2002-04-25 13:50 51°11.076 2°41.37 2.8 303 11.8 102230 80
2002-04-25 13:51 51°11.089 2°41.397 2.4 319 11.8 102240 81
2002-04-25 13:52 51°11.102 2°41.425 1.8 317 11.7 102230 81
2002-04-25 13:53 51°11.115 2°41.451 1.7 324 11.7 102240 81
2002-04-25 13:54 51°11.128 2°41.476 1.4 317 11.7 102230 81
2002-04-25 13:55 51°11.14 2°41.501 0.9 327 11.7 102230 82
2002-04-25 13:56 51°11.152 2°41.526 1.7 322 11.6 102240 82
2002-04-25 13:57 51°11.164 2°41.551 0.8 311 11.6 102240 83
2002-04-25 13:58 51°11.175 2°41.576 1 329 11.5 102230 83
2002-04-25 13:59 51°11.192 2°41.619 3.1 354 11.5 102240 83
2002-04-25 14:00 51°11.181 2°41.697 2.6 101 11.5 102240 83
2002-04-25 14:01 51°11.134 2°41.717 3.8 150 11.5 102230 83
2002-04-25 14:02 51°11.104 2°41.709 3.8 162 11.5 102240 83
2002-04-25 14:03 51°11.085 2°41.702 3.7 155 11.5 102240 84
2002-04-25 14:04 51°11.072 2°41.695 4.4 162 11.4 102240 83
2002-04-25 14:05 51°11.059 2°41.68 4.4 197 11.4 102230 84
2002-04-25 14:06 51°11.062 2°41.624 5.2 237 11.3 102230 84
2002-04-25 14:07 51°11.104 2°41.597 5.7 284 11.5 102230 84
2002-04-25 14:08 51°11.15 2°41.68 2.6 17 11.5 102230 83
2002-04-25 14:09 51°11.117 2°41.768 2.5 114 11.5 102230 84
2002-04-25 14:10 51°11.081 2°41.795 3.9 120 11.6 102230 84
2002-04-25 14:11 51°11.055 2°41.806 3.7 127 11.6 102230 83
2002-04-25 14:12 51°11.035 2°41.809 3.7 140 11.6 102220 83
2002-04-25 14:13 51°11.021 2°41.808 4.4 142 11.5 102220 83
2002-04-25 14:14 51°11.011 2°41.807 3.8 157 11.5 102220 84
2002-04-25 14:15 51°11.004 2°41.804 3.7 159 11.5 102220 85
2002-04-25 14:16 51°10.977 2°41.762 5.8 168 11.4 102210 85
2002-04-25 14:17 51°10.883 2°41.848 1.8 301 11.3 102220 85
2002-04-25 14:18 51°10.86 2°42.165 3.7 261 11.4 102220 85
2002-04-25 14:19 51°10.87 2°42.515 4.9 270 11.4 102220 84
2002-04-25 14:20 51°10.918 2°42.865 5.8 267 11.5 102210 84
2002-04-25 14:21 51°10.97 2°43.214 5.7 268 11.6 102220 83
2002-04-25 14:22 51°11.061 2°43.536 6.8 276 11.6 102210 83
2002-04-25 14:23 51°11.132 2°43.874 5.6 273 11.6 102210 83
2002-04-25 14:24 51°11.196 2°44.207 5.6 268 11.6 102210 82
2002-04-25 14:25 51°11.264 2°44.55 6.3 271 11.6 102200 82
2002-04-25 14:26 51°11.33 2°44.881 5.8 267 11.6 102210 82
2002-04-25 14:27 51°11.397 2°45.224 6.2 263 11.6 102200 82
2002-04-25 14:28 51°11.466 2°45.554 6.9 268 11.6 102210 82
2002-04-25 14:29 51°11.545 2°45.891 6.7 265 11.6 102210 83
2002-04-25 14:30 51°11.622 2°46.223 5.4 268 11.6 102210 82
2002-04-25 14:31 51°11.696 2°46.56 5.9 268 11.6 102210 83
2002-04-25 14:32 51°11.772 2°46.881 5.1 264 11.6 102210 82
2002-04-25 14:33 51°11.848 2°47.218 6.2 267 11.6 102210 83
2002-04-25 14:34 51°11.921 2°47.55 5.8 269 11.6 102210 83
2002-04-25 14:35 51°12.008 2°47.87 6.1 269 11.6 102210 83
2002-04-25 14:36 51°12.098 2°48.19 7 268 11.6 102210 83
2002-04-25 14:37 51°12.187 2°48.511 7.1 269 11.6 102210 83
2002-04-25 14:38 51°12.293 2°48.816 6.5 270 11.5 102210 83
2002-04-25 14:39 51°12.395 2°49.125 6.9 266 11.5 102210 83
2002-04-25 14:40 51°12.496 2°49.428 6.7 273 11.5 102210 83
2002-04-25 14:41 51°12.601 2°49.739 6.8 270 11.5 102210 83
2002-04-25 14:42 51°12.704 2°50.049 7.2 268 11.5 102210 83
2002-04-25 14:43 51°12.813 2°50.347 7.8 269 11.5 102210 84
2002-04-25 14:44 51°12.922 2°50.643 7.5 275 11.5 102210 83
2002-04-25 14:45 51°13.028 2°50.946 8 272 11.5 102210 84
2002-04-25 14:46 51°13.135 2°51.241 7.3 272 11.5 102210 83
2002-04-25 14:47 51°13.239 2°51.543 7.5 262 11.5 102210 83
2002-04-25 14:48 51°13.347 2°51.849 7.7 270 11.5 102200 83
2002-04-25 14:49 51°13.469 2°52.126 7.5 266 11.5 102200 83
2002-04-25 14:50 51°13.595 2°52.415 8.3 268 11.5 102200 83
2002-04-25 14:51 51°13.718 2°52.701 8.7 272 11.5 102200 83
2002-04-25 14:52 51°13.833 2°52.971 6.8 278 11.5 102200 83
2002-04-25 14:53 51°13.929 2°53.148 6.7 280 11.5 102210 83
2002-04-25 14:54 51°14.02 2°53.302 6.5 280 11.5 102200 83
2002-04-25 14:55 51°14.109 2°53.455 6.7 281 11.5 102210 83
2002-04-25 14:56 51°14.195 2°53.602 5.7 285 11.5 102210 84
2002-04-25 14:57 51°14.252 2°53.753 5.2 283 11.5 102200 83
2002-04-25 14:58 51°14.308 2°53.901 5.2 293 11.5 102200 83
2002-04-25 14:59 51°14.349 2°54.011 3.4 302 11.5 102210 83
2002-04-25 15:00 51°14.372 2°54.1 2 316 11.6 102210 83
2002-04-25 15:01 51°14.385 2°54.181 1 336 11.5 102210 83
2002-04-25 15:02 51°14.391 2°54.257 1 336 11.4 102220 83
2002-04-25 15:03 51°14.4 2°54.327 0.6 333 11.4 102210 83
2002-04-25 15:04 51°14.411 2°54.405 1 326 11.4 102210 83
2002-04-25 15:05 51°14.417 2°54.504 3.9 300 11.4 102220 84
2002-04-25 15:06 51°14.417 2°54.624 2.9 308 11.4 102210 83
2002-04-25 15:07 51°14.41 2°54.785 4.4 294 11.5 102210 83
2002-04-25 15:08 51°14.381 2°54.944 2.3 307 11.5 102210 82
2002-04-25 15:09 51°14.345 2°55.08 0.5 339 11.5 102210 81
2002-04-25 15:10 51°14.305 2°55.183 2 9 11.5 102210 81
2002-04-25 15:11 51°14.269 2°55.252 2.6 21 11.5 102210 81
2002-04-25 15:12 51°14.236 2°55.299 2 20 11.6 102220 80
2002-04-25 15:13 51°14.207 2°55.338 2.7 46 11.6 102220 79
2002-04-25 15:14 51°14.145 2°55.398 1.9 46 11.7 102220 79
2002-04-25 15:15 51°14.052 2°55.474 2.4 55 11.7 102220 78
2002-04-25 15:16 51°13.963 2°55.54 2.8 32 11.7 102220 76
2002-04-25 15:17 51°13.891 2°55.591 2.6 27 11.9 102220 77
2002-04-25 15:18 51°13.833 2°55.643 3.3 40 11.9 102220 75
2002-04-25 15:19 51°13.781 2°55.689 3.1 30 12 102220 75
2002-04-25 15:20 51°13.742 2°55.737 3.5 31 11.9 102220 77
2002-04-25 15:21 51°13.717 2°55.791 3.3 353 11.8 102220 75
2002-04-25 15:22 51°13.701 2°55.845 1.3 326 11.8 102220 74
2002-04-25 15:23 51°13.691 2°55.893 3.6 35 11.9 102210 75
2002-04-25 15:24 51°13.689 2°55.904 2.6 360 12 102220 75